Bolinger, Alabama
Current Conditions -  °F | °C
As of 9:58 AM on Tuesday 21 Oct 2014 (Local Time) from KMEI Reporting Station
Clear Clear  
Wind Chill: 66°   Ceiling: Unl
Heat Index: 66°   Visibility: 10mi
Dew Point: 53°   Wind: 0mph
Humidity: 63%   Direction: NA
Pressure: 30.1"   Gusts: NA
Location:  31.7615°N, 88.3039°W
Report Text: KMEI 211458Z 00000KT 10SM CLR 19/12 A3010 RMK AO2 SLP191 60000 T01890117 50010
Loading
Personal Weather Stations






























Interactive Weather Map
Tropical Storm Tracking
New forecast layout! Learn more

10-Day Weather Forecast

Advertisements
Track Severe Weather on mobile